sensor_id;sensor_type;location;lat;lon;timestamp;P1;durP1;ratioP1;P2;durP2;ratioP2
73575;SDS011;61859;49.204;8.140;2024-03-08T00:00:04;17.83;;;11.20;;
73575;SDS011;61859;49.204;8.140;2024-03-08T00:02:41;20.67;;;12.30;;
73575;SDS011;61859;49.204;8.140;2024-03-08T00:05:08;16.67;;;11.17;;
73575;SDS011;61859;49.204;8.140;2024-03-08T00:07:40;16.90;;;12.00;;
73575;SDS011;61859;49.204;8.140;2024-03-08T00:10:07;17.83;;;11.17;;
73575;SDS011;61859;49.204;8.140;2024-03-08T00:12:37;19.60;;;11.57;;
73575;SDS011;61859;49.204;8.140;2024-03-08T00:15:13;17.97;;;12.07;;
73575;SDS011;61859;49.204;8.140;2024-03-08T00:17:40;16.63;;;10.30;;
73575;SDS011;61859;49.204;8.140;2024-03-08T00:20:06;17.97;;;11.80;;
73575;SDS011;61859;49.204;8.140;2024-03-08T00:22:35;18.17;;;11.57;;
73575;SDS011;61859;49.204;8.140;2024-03-08T00:25:04;21.53;;;12.27;;
73575;SDS011;61859;49.204;8.140;2024-03-08T00:27:32;21.33;;;11.43;;
73575;SDS011;61859;49.204;8.140;2024-03-08T00:29:58;18.00;;;12.33;;
73575;SDS011;61859;49.204;8.140;2024-03-08T00:32:25;21.00;;;12.30;;
73575;SDS011;61859;49.204;8.140;2024-03-08T00:34:52;17.97;;;11.90;;
73575;SDS011;61859;49.204;8.140;2024-03-08T00:37:20;21.30;;;12.07;;
73575;SDS011;61859;49.204;8.140;2024-03-08T00:39:52;16.37;;;11.10;;
73575;SDS011;61859;49.204;8.140;2024-03-08T00:42:19;15.33;;;11.20;;
73575;SDS011;61859;49.204;8.140;2024-03-08T00:44:45;18.77;;;12.20;;
73575;SDS011;61859;49.204;8.140;2024-03-08T00:47:11;20.07;;;12.30;;
73575;SDS011;61859;49.204;8.140;2024-03-08T00:49:36;20.10;;;11.63;;
73575;SDS011;61859;49.204;8.140;2024-03-08T00:52:03;16.63;;;10.87;;
73575;SDS011;61859;49.204;8.140;2024-03-08T00:54:35;16.00;;;11.43;;
73575;SDS011;61859;49.204;8.140;2024-03-08T00:57:01;17.57;;;11.73;;
73575;SDS011;61859;49.204;8.140;2024-03-08T00:59:28;15.67;;;11.27;;
73575;SDS011;61859;49.204;8.140;2024-03-08T01:01:57;16.87;;;11.07;;
73575;SDS011;61859;49.204;8.140;2024-03-08T01:04:24;17.63;;;11.10;;
73575;SDS011;61859;49.204;8.140;2024-03-08T01:06:50;16.50;;;10.80;;
73575;SDS011;61859;49.204;8.140;2024-03-08T01:09:16;16.20;;;10.57;;
73575;SDS011;61859;49.204;8.140;2024-03-08T01:11:42;17.37;;;10.93;;
73575;SDS011;61859;49.204;8.140;2024-03-08T01:14:09;19.53;;;11.50;;
73575;SDS011;61859;49.204;8.140;2024-03-08T01:16:35;17.90;;;11.50;;
73575;SDS011;61859;49.204;8.140;2024-03-08T01:19:00;17.57;;;11.67;;
73575;SDS011;61859;49.204;8.140;2024-03-08T01:21:26;20.67;;;11.27;;
73575;SDS011;61859;49.204;8.140;2024-03-08T01:23:52;18.43;;;11.77;;
73575;SDS011;61859;49.204;8.140;2024-03-08T01:26:18;18.90;;;10.77;;
73575;SDS011;61859;49.204;8.140;2024-03-08T01:28:43;16.37;;;11.27;;
73575;SDS011;61859;49.204;8.140;2024-03-08T01:31:09;17.33;;;11.80;;
73575;SDS011;61859;49.204;8.140;2024-03-08T01:33:35;18.47;;;11.27;;
73575;SDS011;61859;49.204;8.140;2024-03-08T01:36:00;17.40;;;11.07;;
73575;SDS011;61859;49.204;8.140;2024-03-08T01:38:27;18.83;;;11.50;;
73575;SDS011;61859;49.204;8.140;2024-03-08T01:40:53;15.97;;;10.93;;
73575;SDS011;61859;49.204;8.140;2024-03-08T01:45:44;17.47;;;11.30;;
73575;SDS011;61859;49.204;8.140;2024-03-08T01:48:10;19.03;;;12.33;;
73575;SDS011;61859;49.204;8.140;2024-03-08T01:50:37;22.00;;;12.53;;
73575;SDS011;61859;49.204;8.140;2024-03-08T01:53:04;21.23;;;11.97;;
73575;SDS011;61859;49.204;8.140;2024-03-08T01:55:30;19.10;;;11.73;;
73575;SDS011;61859;49.204;8.140;2024-03-08T01:57:56;18.80;;;12.60;;
73575;SDS011;61859;49.204;8.140;2024-03-08T02:00:24;18.23;;;11.70;;
73575;SDS011;61859;49.204;8.140;2024-03-08T02:02:51;19.90;;;12.43;;
73575;SDS011;61859;49.204;8.140;2024-03-08T02:05:19;17.07;;;12.03;;
73575;SDS011;61859;49.204;8.140;2024-03-08T02:07:46;20.70;;;11.83;;
73575;SDS011;61859;49.204;8.140;2024-03-08T02:10:11;17.63;;;11.97;;
73575;SDS011;61859;49.204;8.140;2024-03-08T02:12:37;19.53;;;12.00;;
73575;SDS011;61859;49.204;8.140;2024-03-08T02:15:04;20.30;;;12.23;;
73575;SDS011;61859;49.204;8.140;2024-03-08T02:17:31;16.67;;;11.50;;
73575;SDS011;61859;49.204;8.140;2024-03-08T02:19:58;22.20;;;12.57;;
73575;SDS011;61859;49.204;8.140;2024-03-08T02:22:26;19.37;;;12.03;;
73575;SDS011;61859;49.204;8.140;2024-03-08T02:24:53;17.17;;;11.50;;
73575;SDS011;61859;49.204;8.140;2024-03-08T02:27:23;19.40;;;11.73;;
73575;SDS011;61859;49.204;8.140;2024-03-08T02:29:50;19.07;;;11.40;;
73575;SDS011;61859;49.204;8.140;2024-03-08T02:32:20;18.33;;;11.53;;
73575;SDS011;61859;49.204;8.140;2024-03-08T02:34:47;19.17;;;12.10;;
73575;SDS011;61859;49.204;8.140;2024-03-08T02:37:12;21.67;;;12.97;;
73575;SDS011;61859;49.204;8.140;2024-03-08T02:39:38;17.23;;;12.00;;
73575;SDS011;61859;49.204;8.140;2024-03-08T02:42:04;18.33;;;12.03;;
73575;SDS011;61859;49.204;8.140;2024-03-08T02:44:29;17.80;;;11.73;;
73575;SDS011;61859;49.204;8.140;2024-03-08T02:46:55;19.43;;;12.43;;
73575;SDS011;61859;49.204;8.140;2024-03-08T02:49:20;18.17;;;12.23;;
73575;SDS011;61859;49.204;8.140;2024-03-08T02:51:46;18.53;;;12.33;;
73575;SDS011;61859;49.204;8.140;2024-03-08T02:54:12;22.00;;;12.60;;
73575;SDS011;61859;49.204;8.140;2024-03-08T02:56:37;20.93;;;12.93;;
73575;SDS011;61859;49.204;8.140;2024-03-08T02:59:03;19.80;;;12.30;;
73575;SDS011;61859;49.204;8.140;2024-03-08T03:01:28;19.43;;;12.13;;
73575;SDS011;61859;49.204;8.140;2024-03-08T03:03:54;21.63;;;12.87;;
73575;SDS011;61859;49.204;8.140;2024-03-08T03:06:20;17.60;;;11.47;;
73575;SDS011;61859;49.204;8.140;2024-03-08T03:08:46;21.57;;;12.87;;
73575;SDS011;61859;49.204;8.140;2024-03-08T03:11:12;18.13;;;11.90;;
73575;SDS011;61859;49.204;8.140;2024-03-08T03:13:39;19.70;;;13.27;;
73575;SDS011;61859;49.204;8.140;2024-03-08T03:16:04;22.97;;;13.27;;
73575;SDS011;61859;49.204;8.140;2024-03-08T03:18:30;19.47;;;12.73;;
73575;SDS011;61859;49.204;8.140;2024-03-08T03:20:57;20.70;;;12.73;;
73575;SDS011;61859;49.204;8.140;2024-03-08T03:23:23;20.73;;;12.67;;
73575;SDS011;61859;49.204;8.140;2024-03-08T03:25:51;21.10;;;12.03;;
73575;SDS011;61859;49.204;8.140;2024-03-08T03:28:17;17.73;;;12.60;;
73575;SDS011;61859;49.204;8.140;2024-03-08T03:30:44;22.90;;;13.43;;
73575;SDS011;61859;49.204;8.140;2024-03-08T03:33:11;19.07;;;12.77;;
73575;SDS011;61859;49.204;8.140;2024-03-08T03:35:37;21.63;;;13.23;;
73575;SDS011;61859;49.204;8.140;2024-03-08T03:38:04;17.30;;;12.07;;
73575;SDS011;61859;49.204;8.140;2024-03-08T03:40:41;21.77;;;12.90;;
73575;SDS011;61859;49.204;8.140;2024-03-08T03:43:07;21.00;;;12.57;;
73575;SDS011;61859;49.204;8.140;2024-03-08T03:45:34;21.17;;;12.37;;
73575;SDS011;61859;49.204;8.140;2024-03-08T03:48:03;21.10;;;12.53;;
73575;SDS011;61859;49.204;8.140;2024-03-08T03:50:34;20.87;;;12.63;;
73575;SDS011;61859;49.204;8.140;2024-03-08T03:53:00;22.70;;;13.33;;
73575;SDS011;61859;49.204;8.140;2024-03-08T03:55:25;20.53;;;13.03;;
73575;SDS011;61859;49.204;8.140;2024-03-08T03:57:52;20.70;;;12.77;;
73575;SDS011;61859;49.204;8.140;2024-03-08T04:00:17;22.80;;;14.23;;
73575;SDS011;61859;49.204;8.140;2024-03-08T04:02:43;25.57;;;13.57;;
73575;SDS011;61859;49.204;8.140;2024-03-08T04:05:10;20.67;;;13.97;;
73575;SDS011;61859;49.204;8.140;2024-03-08T04:07:36;22.80;;;14.13;;
73575;SDS011;61859;49.204;8.140;2024-03-08T04:10:02;22.67;;;13.63;;
73575;SDS011;61859;49.204;8.140;2024-03-08T04:12:28;21.60;;;12.57;;
73575;SDS011;61859;49.204;8.140;2024-03-08T04:14:55;23.67;;;13.50;;
73575;SDS011;61859;49.204;8.140;2024-03-08T04:17:21;23.60;;;13.37;;
73575;SDS011;61859;49.204;8.140;2024-03-08T04:19:46;19.47;;;13.53;;
73575;SDS011;61859;49.204;8.140;2024-03-08T04:22:13;21.33;;;12.70;;
73575;SDS011;61859;49.204;8.140;2024-03-08T04:24:39;22.07;;;13.07;;
73575;SDS011;61859;49.204;8.140;2024-03-08T04:27:05;20.27;;;13.30;;
73575;SDS011;61859;49.204;8.140;2024-03-08T04:29:31;21.03;;;12.97;;
73575;SDS011;61859;49.204;8.140;2024-03-08T04:31:57;22.33;;;12.97;;
73575;SDS011;61859;49.204;8.140;2024-03-08T04:34:23;21.50;;;12.83;;
73575;SDS011;61859;49.204;8.140;2024-03-08T04:36:49;21.47;;;13.47;;
73575;SDS011;61859;49.204;8.140;2024-03-08T04:39:14;21.13;;;13.30;;
73575;SDS011;61859;49.204;8.140;2024-03-08T04:41:40;20.00;;;12.50;;
73575;SDS011;61859;49.204;8.140;2024-03-08T04:44:08;21.30;;;12.77;;
73575;SDS011;61859;49.204;8.140;2024-03-08T04:46:35;23.53;;;12.40;;
73575;SDS011;61859;49.204;8.140;2024-03-08T04:49:00;21.37;;;12.60;;
73575;SDS011;61859;49.204;8.140;2024-03-08T04:51:26;22.13;;;12.87;;
73575;SDS011;61859;49.204;8.140;2024-03-08T04:53:52;22.77;;;13.90;;
73575;SDS011;61859;49.204;8.140;2024-03-08T04:56:18;21.37;;;12.37;;
73575;SDS011;61859;49.204;8.140;2024-03-08T04:58:44;20.50;;;12.07;;
73575;SDS011;61859;49.204;8.140;2024-03-08T05:01:11;20.47;;;12.13;;
73575;SDS011;61859;49.204;8.140;2024-03-08T05:03:37;24.13;;;13.47;;
73575;SDS011;61859;49.204;8.140;2024-03-08T05:06:03;23.20;;;13.20;;
73575;SDS011;61859;49.204;8.140;2024-03-08T05:08:29;20.13;;;13.47;;
73575;SDS011;61859;49.204;8.140;2024-03-08T05:10:55;20.50;;;12.60;;
73575;SDS011;61859;49.204;8.140;2024-03-08T05:13:21;21.80;;;12.67;;
73575;SDS011;61859;49.204;8.140;2024-03-08T05:15:48;18.63;;;12.67;;
73575;SDS011;61859;49.204;8.140;2024-03-08T05:18:18;19.70;;;12.67;;
73575;SDS011;61859;49.204;8.140;2024-03-08T05:20:43;22.23;;;13.30;;
73575;SDS011;61859;49.204;8.140;2024-03-08T05:23:09;22.00;;;13.00;;
73575;SDS011;61859;49.204;8.140;2024-03-08T05:25:35;21.90;;;13.30;;
73575;SDS011;61859;49.204;8.140;2024-03-08T05:28:01;20.60;;;12.77;;
73575;SDS011;61859;49.204;8.140;2024-03-08T05:30:26;20.27;;;12.87;;
73575;SDS011;61859;49.204;8.140;2024-03-08T05:32:52;20.03;;;12.63;;
73575;SDS011;61859;49.204;8.140;2024-03-08T05:35:17;19.67;;;12.17;;
73575;SDS011;61859;49.204;8.140;2024-03-08T05:37:43;20.47;;;12.70;;
73575;SDS011;61859;49.204;8.140;2024-03-08T05:40:08;21.20;;;12.93;;
73575;SDS011;61859;49.204;8.140;2024-03-08T05:42:37;19.90;;;12.93;;
73575;SDS011;61859;49.204;8.140;2024-03-08T05:45:03;23.83;;;13.57;;
73575;SDS011;61859;49.204;8.140;2024-03-08T05:47:31;21.33;;;12.07;;
73575;SDS011;61859;49.204;8.140;2024-03-08T05:49:57;19.93;;;12.10;;
73575;SDS011;61859;49.204;8.140;2024-03-08T05:52:24;20.80;;;12.83;;
73575;SDS011;61859;49.204;8.140;2024-03-08T05:54:51;19.40;;;12.50;;
73575;SDS011;61859;49.204;8.140;2024-03-08T05:57:16;23.07;;;13.50;;
73575;SDS011;61859;49.204;8.140;2024-03-08T05:59:42;20.20;;;12.53;;
73575;SDS011;61859;49.204;8.140;2024-03-08T06:02:08;21.97;;;12.93;;
73575;SDS011;61859;49.204;8.140;2024-03-08T06:04:33;17.33;;;11.50;;
73575;SDS011;61859;49.204;8.140;2024-03-08T06:06:59;22.47;;;13.40;;
73575;SDS011;61859;49.204;8.140;2024-03-08T06:09:25;20.40;;;12.47;;
73575;SDS011;61859;49.204;8.140;2024-03-08T06:11:51;23.57;;;13.90;;
73575;SDS011;61859;49.204;8.140;2024-03-08T06:14:18;27.60;;;13.90;;
73575;SDS011;61859;49.204;8.140;2024-03-08T06:16:45;22.43;;;13.27;;
73575;SDS011;61859;49.204;8.140;2024-03-08T06:19:11;22.27;;;12.93;;
73575;SDS011;61859;49.204;8.140;2024-03-08T06:21:37;19.67;;;12.53;;
73575;SDS011;61859;49.204;8.140;2024-03-08T06:24:03;23.37;;;13.50;;
73575;SDS011;61859;49.204;8.140;2024-03-08T06:26:29;19.00;;;12.03;;
73575;SDS011;61859;49.204;8.140;2024-03-08T06:28:54;21.50;;;13.50;;
73575;SDS011;61859;49.204;8.140;2024-03-08T06:31:20;22.90;;;12.67;;
73575;SDS011;61859;49.204;8.140;2024-03-08T06:33:46;22.07;;;12.17;;
73575;SDS011;61859;49.204;8.140;2024-03-08T06:36:15;21.90;;;13.17;;
73575;SDS011;61859;49.204;8.140;2024-03-08T06:38:43;21.93;;;13.10;;
73575;SDS011;61859;49.204;8.140;2024-03-08T06:41:12;21.13;;;13.53;;
73575;SDS011;61859;49.204;8.140;2024-03-08T06:43:40;19.97;;;12.50;;
73575;SDS011;61859;49.204;8.140;2024-03-08T06:46:09;21.23;;;12.77;;
73575;SDS011;61859;49.204;8.140;2024-03-08T06:48:37;18.83;;;13.00;;
73575;SDS011;61859;49.204;8.140;2024-03-08T06:51:06;17.50;;;12.37;;
73575;SDS011;61859;49.204;8.140;2024-03-08T06:53:32;21.73;;;12.80;;
73575;SDS011;61859;49.204;8.140;2024-03-08T06:55:57;20.77;;;12.63;;
73575;SDS011;61859;49.204;8.140;2024-03-08T06:58:23;21.60;;;12.30;;
73575;SDS011;61859;49.204;8.140;2024-03-08T07:00:49;20.17;;;12.30;;
73575;SDS011;61859;49.204;8.140;2024-03-08T07:03:18;21.00;;;12.17;;
73575;SDS011;61859;49.204;8.140;2024-03-08T07:05:44;20.13;;;12.47;;
73575;SDS011;61859;49.204;8.140;2024-03-08T07:08:09;21.80;;;12.13;;
73575;SDS011;61859;49.204;8.140;2024-03-08T07:10:35;20.40;;;12.10;;
73575;SDS011;61859;49.204;8.140;2024-03-08T07:13:02;19.00;;;11.80;;
73575;SDS011;61859;49.204;8.140;2024-03-08T07:15:28;19.20;;;11.90;;
73575;SDS011;61859;49.204;8.140;2024-03-08T07:17:54;19.03;;;12.50;;
73575;SDS011;61859;49.204;8.140;2024-03-08T07:20:19;19.53;;;11.60;;
73575;SDS011;61859;49.204;8.140;2024-03-08T07:22:46;17.70;;;11.50;;
73575;SDS011;61859;49.204;8.140;2024-03-08T07:25:18;21.07;;;13.13;;
73575;SDS011;61859;49.204;8.140;2024-03-08T07:27:51;19.33;;;12.27;;
73575;SDS011;61859;49.204;8.140;2024-03-08T07:30:23;21.20;;;12.07;;
73575;SDS011;61859;49.204;8.140;2024-03-08T07:33:08;17.83;;;10.43;;
73575;SDS011;61859;49.204;8.140;2024-03-08T07:35:36;18.33;;;11.90;;
73575;SDS011;61859;49.204;8.140;2024-03-08T07:38:05;22.10;;;12.53;;
73575;SDS011;61859;49.204;8.140;2024-03-08T07:40:36;20.23;;;11.90;;
73575;SDS011;61859;49.204;8.140;2024-03-08T07:43:09;17.80;;;11.57;;
73575;SDS011;61859;49.204;8.140;2024-03-08T07:45:35;19.03;;;12.00;;
73575;SDS011;61859;49.204;8.140;2024-03-08T07:48:01;16.17;;;11.00;;
73575;SDS011;61859;49.204;8.140;2024-03-08T07:50:28;15.37;;;10.60;;
73575;SDS011;61859;49.204;8.140;2024-03-08T07:52:53;16.97;;;10.87;;
73575;SDS011;61859;49.204;8.140;2024-03-08T07:55:19;18.87;;;11.53;;
73575;SDS011;61859;49.204;8.140;2024-03-08T07:57:45;17.43;;;10.93;;
73575;SDS011;61859;49.204;8.140;2024-03-08T08:00:12;16.73;;;10.37;;
73575;SDS011;61859;49.204;8.140;2024-03-08T08:02:42;20.93;;;11.33;;
73575;SDS011;61859;49.204;8.140;2024-03-08T08:05:10;21.60;;;11.40;;
73575;SDS011;61859;49.204;8.140;2024-03-08T08:07:36;20.07;;;11.50;;
73575;SDS011;61859;49.204;8.140;2024-03-08T08:10:01;19.20;;;10.13;;
73575;SDS011;61859;49.204;8.140;2024-03-08T08:12:27;16.80;;;9.97;;
73575;SDS011;61859;49.204;8.140;2024-03-08T08:14:54;20.17;;;10.23;;
73575;SDS011;61859;49.204;8.140;2024-03-08T08:17:19;15.60;;;10.50;;
73575;SDS011;61859;49.204;8.140;2024-03-08T08:19:45;18.90;;;10.43;;
73575;SDS011;61859;49.204;8.140;2024-03-08T08:22:11;15.13;;;10.50;;
73575;SDS011;61859;49.204;8.140;2024-03-08T08:24:36;17.47;;;10.87;;
73575;SDS011;61859;49.204;8.140;2024-03-08T08:27:02;15.90;;;10.07;;
73575;SDS011;61859;49.204;8.140;2024-03-08T08:29:28;14.40;;;10.40;;
73575;SDS011;61859;49.204;8.140;2024-03-08T08:31:55;12.67;;;9.67;;
73575;SDS011;61859;49.204;8.140;2024-03-08T08:34:24;14.73;;;10.63;;
73575;SDS011;61859;49.204;8.140;2024-03-08T08:36:51;17.40;;;10.13;;
73575;SDS011;61859;49.204;8.140;2024-03-08T08:39:18;15.33;;;10.40;;
73575;SDS011;61859;49.204;8.140;2024-03-08T08:41:43;17.03;;;11.23;;
73575;SDS011;61859;49.204;8.140;2024-03-08T08:44:09;14.90;;;10.07;;
73575;SDS011;61859;49.204;8.140;2024-03-08T08:46:37;16.67;;;10.47;;
73575;SDS011;61859;49.204;8.140;2024-03-08T08:49:03;13.30;;;9.37;;
73575;SDS011;61859;49.204;8.140;2024-03-08T08:51:29;14.23;;;10.23;;
73575;SDS011;61859;49.204;8.140;2024-03-08T08:53:55;13.43;;;9.77;;
73575;SDS011;61859;49.204;8.140;2024-03-08T08:56:21;13.67;;;10.03;;
73575;SDS011;61859;49.204;8.140;2024-03-08T08:58:47;15.10;;;9.83;;
73575;SDS011;61859;49.204;8.140;2024-03-08T09:01:14;14.37;;;9.50;;
73575;SDS011;61859;49.204;8.140;2024-03-08T09:03:40;14.67;;;10.40;;
73575;SDS011;61859;49.204;8.140;2024-03-08T09:06:09;13.37;;;9.70;;
73575;SDS011;61859;49.204;8.140;2024-03-08T09:08:38;16.20;;;10.30;;
73575;SDS011;61859;49.204;8.140;2024-03-08T09:11:07;14.40;;;9.87;;
73575;SDS011;61859;49.204;8.140;2024-03-08T09:13:32;14.10;;;10.23;;
73575;SDS011;61859;49.204;8.140;2024-03-08T09:16:04;14.67;;;9.90;;
73575;SDS011;61859;49.204;8.140;2024-03-08T09:18:30;13.67;;;10.07;;
73575;SDS011;61859;49.204;8.140;2024-03-08T09:20:57;14.60;;;10.03;;
73575;SDS011;61859;49.204;8.140;2024-03-08T09:23:23;15.93;;;10.33;;
73575;SDS011;61859;49.204;8.140;2024-03-08T09:25:48;14.07;;;9.97;;
73575;SDS011;61859;49.204;8.140;2024-03-08T09:28:14;14.70;;;10.63;;
73575;SDS011;61859;49.204;8.140;2024-03-08T09:30:41;16.17;;;10.37;;
73575;SDS011;61859;49.204;8.140;2024-03-08T09:33:06;14.10;;;9.63;;
73575;SDS011;61859;49.204;8.140;2024-03-08T09:35:32;13.83;;;10.03;;
73575;SDS011;61859;49.204;8.140;2024-03-08T09:37:58;14.43;;;10.40;;
73575;SDS011;61859;49.204;8.140;2024-03-08T09:40:24;15.47;;;10.63;;
73575;SDS011;61859;49.204;8.140;2024-03-08T09:42:51;14.20;;;9.53;;
73575;SDS011;61859;49.204;8.140;2024-03-08T09:45:17;15.47;;;10.73;;
73575;SDS011;61859;49.204;8.140;2024-03-08T09:47:47;16.23;;;10.70;;
73575;SDS011;61859;49.204;8.140;2024-03-08T09:50:13;13.63;;;9.67;;
73575;SDS011;61859;49.204;8.140;2024-03-08T09:52:39;14.33;;;9.97;;
73575;SDS011;61859;49.204;8.140;2024-03-08T09:55:06;13.67;;;9.83;;
73575;SDS011;61859;49.204;8.140;2024-03-08T09:57:36;13.23;;;10.10;;
73575;SDS011;61859;49.204;8.140;2024-03-08T10:00:02;14.83;;;10.17;;
73575;SDS011;61859;49.204;8.140;2024-03-08T10:02:44;15.97;;;10.00;;
73575;SDS011;61859;49.204;8.140;2024-03-08T10:05:11;16.67;;;10.80;;
73575;SDS011;61859;49.204;8.140;2024-03-08T10:07:37;15.83;;;9.27;;
73575;SDS011;61859;49.204;8.140;2024-03-08T10:10:03;13.30;;;9.83;;
73575;SDS011;61859;49.204;8.140;2024-03-08T10:12:29;13.20;;;9.90;;
73575;SDS011;61859;49.204;8.140;2024-03-08T10:14:55;17.57;;;10.57;;
73575;SDS011;61859;49.204;8.140;2024-03-08T10:17:21;13.93;;;9.63;;
73575;SDS011;61859;49.204;8.140;2024-03-08T10:19:50;14.73;;;10.50;;
73575;SDS011;61859;49.204;8.140;2024-03-08T10:22:19;15.20;;;10.00;;
73575;SDS011;61859;49.204;8.140;2024-03-08T10:24:48;14.63;;;10.33;;
73575;SDS011;61859;49.204;8.140;2024-03-08T10:27:16;15.37;;;9.73;;
73575;SDS011;61859;49.204;8.140;2024-03-08T10:29:42;15.87;;;10.50;;
73575;SDS011;61859;49.204;8.140;2024-03-08T10:32:09;11.20;;;8.57;;
73575;SDS011;61859;49.204;8.140;2024-03-08T10:34:35;13.17;;;8.80;;
73575;SDS011;61859;49.204;8.140;2024-03-08T10:37:03;12.40;;;9.23;;
73575;SDS011;61859;49.204;8.140;2024-03-08T10:39:30;15.87;;;9.63;;
73575;SDS011;61859;49.204;8.140;2024-03-08T10:42:02;12.37;;;9.47;;
73575;SDS011;61859;49.204;8.140;2024-03-08T10:50:27;14.63;;;9.67;;
73575;SDS011;61859;49.204;8.140;2024-03-08T10:52:28;13.07;;;9.27;;
73575;SDS011;61859;49.204;8.140;2024-03-08T10:54:54;12.77;;;9.63;;
73575;SDS011;61859;49.204;8.140;2024-03-08T10:57:21;14.30;;;9.30;;
73575;SDS011;61859;49.204;8.140;2024-03-08T10:59:49;14.93;;;9.90;;
73575;SDS011;61859;49.204;8.140;2024-03-08T11:02:16;16.60;;;12.47;;
73575;SDS011;61859;49.204;8.140;2024-03-08T11:04:49;13.87;;;9.47;;
73575;SDS011;61859;49.204;8.140;2024-03-08T11:07:15;13.37;;;9.30;;
73575;SDS011;61859;49.204;8.140;2024-03-08T11:09:45;14.23;;;10.20;;
73575;SDS011;61859;49.204;8.140;2024-03-08T11:14:46;15.03;;;10.07;;
73575;SDS011;61859;49.204;8.140;2024-03-08T11:19:55;14.00;;;9.97;;
73575;SDS011;61859;49.204;8.140;2024-03-08T11:22:22;12.43;;;9.67;;
73575;SDS011;61859;49.204;8.140;2024-03-08T11:24:53;13.93;;;9.83;;
73575;SDS011;61859;49.204;8.140;2024-03-08T11:27:28;13.20;;;9.00;;
73575;SDS011;61859;49.204;8.140;2024-03-08T11:30:06;13.57;;;8.80;;
73575;SDS011;61859;49.204;8.140;2024-03-08T11:32:48;12.90;;;9.40;;
73575;SDS011;61859;49.204;8.140;2024-03-08T11:35:21;13.50;;;9.77;;
73575;SDS011;61859;49.204;8.140;2024-03-08T11:37:50;12.27;;;9.73;;
73575;SDS011;61859;49.204;8.140;2024-03-08T11:40:15;18.13;;;11.80;;
73575;SDS011;61859;49.204;8.140;2024-03-08T11:42:45;13.17;;;9.80;;
73575;SDS011;61859;49.204;8.140;2024-03-08T11:45:12;15.33;;;9.83;;
73575;SDS011;61859;49.204;8.140;2024-03-08T11:47:41;16.07;;;11.23;;
73575;SDS011;61859;49.204;8.140;2024-03-08T11:50:07;14.90;;;8.93;;
73575;SDS011;61859;49.204;8.140;2024-03-08T11:52:36;14.20;;;10.17;;
73575;SDS011;61859;49.204;8.140;2024-03-08T11:55:04;12.67;;;8.23;;
73575;SDS011;61859;49.204;8.140;2024-03-08T11:57:30;13.40;;;9.70;;
73575;SDS011;61859;49.204;8.140;2024-03-08T11:59:58;18.00;;;9.70;;
73575;SDS011;61859;49.204;8.140;2024-03-08T12:02:31;17.13;;;9.47;;
73575;SDS011;61859;49.204;8.140;2024-03-08T12:05:00;15.57;;;11.00;;
73575;SDS011;61859;49.204;8.140;2024-03-08T12:07:28;13.90;;;9.50;;
73575;SDS011;61859;49.204;8.140;2024-03-08T12:10:14;16.20;;;9.20;;
73575;SDS011;61859;49.204;8.140;2024-03-08T12:12:42;12.20;;;9.03;;
73575;SDS011;61859;49.204;8.140;2024-03-08T12:15:09;12.10;;;8.87;;
73575;SDS011;61859;49.204;8.140;2024-03-08T12:17:36;12.07;;;9.17;;
73575;SDS011;61859;49.204;8.140;2024-03-08T12:20:38;12.97;;;9.10;;
73575;SDS011;61859;49.204;8.140;2024-03-08T12:22:57;12.67;;;9.43;;
73575;SDS011;61859;49.204;8.140;2024-03-08T12:25:25;13.63;;;9.30;;
73575;SDS011;61859;49.204;8.140;2024-03-08T12:28:12;11.77;;;9.23;;
73575;SDS011;61859;49.204;8.140;2024-03-08T12:30:49;13.47;;;8.93;;
73575;SDS011;61859;49.204;8.140;2024-03-08T12:33:17;12.57;;;9.07;;
73575;SDS011;61859;49.204;8.140;2024-03-08T12:35:50;15.40;;;9.27;;
73575;SDS011;61859;49.204;8.140;2024-03-08T12:38:23;11.33;;;8.47;;
73575;SDS011;61859;49.204;8.140;2024-03-08T12:40:50;12.57;;;8.57;;
73575;SDS011;61859;49.204;8.140;2024-03-08T12:43:15;11.90;;;9.00;;
73575;SDS011;61859;49.204;8.140;2024-03-08T12:45:41;12.13;;;9.30;;
73575;SDS011;61859;49.204;8.140;2024-03-08T12:48:12;10.17;;;8.27;;
73575;SDS011;61859;49.204;8.140;2024-03-08T12:50:40;12.03;;;8.33;;
73575;SDS011;61859;49.204;8.140;2024-03-08T12:53:06;12.20;;;8.97;;
73575;SDS011;61859;49.204;8.140;2024-03-08T12:55:31;12.07;;;9.00;;
73575;SDS011;61859;49.204;8.140;2024-03-08T12:57:58;12.23;;;8.80;;
73575;SDS011;61859;49.204;8.140;2024-03-08T13:00:25;11.57;;;8.87;;
73575;SDS011;61859;49.204;8.140;2024-03-08T13:02:53;11.33;;;8.63;;
73575;SDS011;61859;49.204;8.140;2024-03-08T13:05:19;10.77;;;8.33;;
73575;SDS011;61859;49.204;8.140;2024-03-08T13:07:45;11.87;;;8.87;;
73575;SDS011;61859;49.204;8.140;2024-03-08T13:10:14;12.37;;;9.53;;
73575;SDS011;61859;49.204;8.140;2024-03-08T13:12:43;11.20;;;7.83;;
73575;SDS011;61859;49.204;8.140;2024-03-08T13:15:09;9.53;;;8.27;;
73575;SDS011;61859;49.204;8.140;2024-03-08T13:17:45;11.87;;;8.60;;
73575;SDS011;61859;49.204;8.140;2024-03-08T13:20:14;10.50;;;8.32;;
73575;SDS011;61859;49.204;8.140;2024-03-08T13:22:47;11.88;;;8.40;;
73575;SDS011;61859;49.204;8.140;2024-03-08T13:25:13;11.85;;;8.23;;
73575;SDS011;61859;49.204;8.140;2024-03-08T13:27:39;10.63;;;8.98;;
73575;SDS011;61859;49.204;8.140;2024-03-08T13:30:07;8.82;;;7.93;;
73575;SDS011;61859;49.204;8.140;2024-03-08T13:32:39;11.48;;;9.00;;
73575;SDS011;61859;49.204;8.140;2024-03-08T13:35:05;11.32;;;9.32;;
73575;SDS011;61859;49.204;8.140;2024-03-08T13:37:37;12.23;;;8.90;;
73575;SDS011;61859;49.204;8.140;2024-03-08T13:40:06;12.38;;;9.77;;
73575;SDS011;61859;49.204;8.140;2024-03-08T13:42:36;10.48;;;8.35;;
73575;SDS011;61859;49.204;8.140;2024-03-08T13:45:03;11.80;;;9.45;;
73575;SDS011;61859;49.204;8.140;2024-03-08T13:47:32;12.43;;;9.57;;
73575;SDS011;61859;49.204;8.140;2024-03-08T13:49:57;10.75;;;9.65;;
73575;SDS011;61859;49.204;8.140;2024-03-08T13:52:23;13.75;;;9.73;;
73575;SDS011;61859;49.204;8.140;2024-03-08T13:54:50;10.35;;;9.18;;
73575;SDS011;61859;49.204;8.140;2024-03-08T13:57:16;10.50;;;8.93;;
73575;SDS011;61859;49.204;8.140;2024-03-08T13:59:43;10.40;;;8.85;;
73575;SDS011;61859;49.204;8.140;2024-03-08T14:02:09;12.25;;;9.25;;
73575;SDS011;61859;49.204;8.140;2024-03-08T14:04:38;11.70;;;9.30;;
73575;SDS011;61859;49.204;8.140;2024-03-08T14:07:05;13.32;;;10.10;;
73575;SDS011;61859;49.204;8.140;2024-03-08T14:09:33;10.57;;;9.40;;
73575;SDS011;61859;49.204;8.140;2024-03-08T14:12:02;12.65;;;9.73;;
73575;SDS011;61859;49.204;8.140;2024-03-08T14:14:32;12.27;;;9.77;;
73575;SDS011;61859;49.204;8.140;2024-03-08T14:17:00;13.25;;;10.00;;
73575;SDS011;61859;49.204;8.140;2024-03-08T14:19:27;11.80;;;9.93;;
73575;SDS011;61859;49.204;8.140;2024-03-08T14:21:53;13.13;;;9.70;;
73575;SDS011;61859;49.204;8.140;2024-03-08T14:24:19;12.88;;;9.90;;
73575;SDS011;61859;49.204;8.140;2024-03-08T14:26:44;11.63;;;9.30;;
73575;SDS011;61859;49.204;8.140;2024-03-08T14:29:11;11.85;;;9.93;;
73575;SDS011;61859;49.204;8.140;2024-03-08T14:31:37;12.25;;;9.40;;
73575;SDS011;61859;49.204;8.140;2024-03-08T14:34:03;11.10;;;9.57;;
73575;SDS011;61859;49.204;8.140;2024-03-08T14:36:29;12.85;;;9.77;;
73575;SDS011;61859;49.204;8.140;2024-03-08T14:38:55;13.00;;;9.90;;